Time;durP1;ratioP1;P1;durP2;ratioP2;P2;SDS_P1;SDS_P2;PMS_P1;PMS_P2;Temp;Humidity;BMP_temperature;BMP_pressure;BME280_temperature;BME280_humidity;BME280_pressure;Samples;Min_cycle;Max_cycle;Signal;HPM_P1;HPM_P2
2023/07/09 00:01:43;;;;;;;24.48;18.40;;;23.60;99.90;;;;;;5072878;28;20219;-78
2023/07/09 00:04:13;;;;;;;25.77;18.75;;;23.70;99.90;;;;;;5073076;28;20628;-78
2023/07/09 00:06:40;;;;;;;19.98;16.65;;;23.80;99.90;;;;;;5073202;28;20181;-78
2023/07/09 00:09:12;;;;;;;21.40;14.20;;;23.90;99.90;;;;;;5073057;28;20657;-78
2023/07/09 00:11:37;;;;;;;18.83;15.40;;;23.90;99.90;;;;;;5073283;28;20555;-78
2023/07/09 00:14:05;;;;;;;28.52;21.13;;;24.00;99.90;;;;;;5072966;28;20636;-78
2023/07/09 00:16:31;;;;;;;36.20;25.83;;;24.00;99.90;;;;;;5072422;28;20279;-78
2023/07/09 00:18:57;;;;;;;26.42;18.55;;;24.00;99.90;;;;;;5072630;28;20294;-77
2023/07/09 00:21:22;;;;;;;30.00;22.05;;;23.90;99.90;;;;;;5072235;28;20551;-78
2023/07/09 00:23:48;;;;;;;29.50;22.48;;;23.80;99.90;;;;;;5074935;28;20169;-77
2023/07/09 00:26:15;;;;;;;24.00;17.25;;;23.80;99.90;;;;;;5076727;28;20669;-77
2023/07/09 00:28:42;;;;;;;22.92;17.08;;;23.80;99.90;;;;;;5076572;28;20227;-77
2023/07/09 00:31:17;;;;;;;26.50;16.52;;;23.70;97.20;;;;;;5076051;28;20161;-78
2023/07/09 00:33:43;;;;;;;10.05;8.88;;;23.70;96.90;;;;;;5076420;28;20221;-77
2023/07/09 00:36:18;;;;;;;10.40;8.60;;;23.80;99.90;;;;;;5058306;28;20177;-77
2023/07/09 00:38:47;;;;;;;13.98;10.02;;;23.70;99.90;;;;;;5075894;28;20219;-77
2023/07/09 00:41:19;;;;;;;12.00;9.05;;;23.70;99.90;;;;;;5076098;28;20193;-78
2023/07/09 00:43:47;;;;;;;12.82;9.48;;;23.60;99.90;;;;;;5076246;28;20674;-79
2023/07/09 00:46:27;;;;;;;12.80;10.20;;;23.60;99.90;;;;;;5076013;28;20214;-77
2023/07/09 00:48:57;;;;;;;13.27;9.73;;;23.60;99.90;;;;;;5076092;28;20635;-78
2023/07/09 00:51:24;;;;;;;13.65;9.80;;;23.70;99.90;;;;;;5075889;28;20631;-78
2023/07/09 00:53:53;;;;;;;13.82;9.15;;;23.60;99.90;;;;;;5075965;28;20168;-78
2023/07/09 00:56:38;;;;;;;12.30;9.45;;;23.50;99.90;;;;;;5076192;28;20184;-78
2023/07/09 00:59:09;;;;;;;12.85;8.93;;;23.40;99.90;;;;;;5075624;28;20173;-77
2023/07/09 01:01:35;;;;;;;9.90;8.40;;;23.30;99.90;;;;;;5057903;28;20671;-77
2023/07/09 01:04:03;;;;;;;11.77;9.10;;;23.30;99.90;;;;;;5075732;28;20180;-76
2023/07/09 01:06:44;;;;;;;12.90;8.90;;;23.30;99.90;;;;;;5075893;28;20168;-77
2023/07/09 01:09:10;;;;;;;14.77;9.13;;;23.30;99.90;;;;;;5075770;28;20267;-77
2023/07/09 01:11:37;;;;;;;12.75;8.60;;;23.20;99.90;;;;;;5075614;28;20267;-78
2023/07/09 01:14:06;;;;;;;11.82;8.80;;;23.20;99.90;;;;;;5075556;28;20172;-78
2023/07/09 01:16:37;;;;;;;12.65;9.05;;;23.10;99.90;;;;;;5075410;28;20180;-78
2023/07/09 01:19:04;;;;;;;9.80;8.40;;;23.00;99.90;;;;;;5075835;28;20195;-78
2023/07/09 01:21:30;;;;;;;13.13;8.63;;;22.90;99.90;;;;;;5075473;28;20300;-77
2023/07/09 01:23:57;;;;;;;9.85;8.45;;;22.90;99.90;;;;;;5057513;28;20248;-77
2023/07/09 01:26:26;;;;;;;15.00;9.35;;;22.90;99.90;;;;;;5075339;28;20200;-77
2023/07/09 01:28:55;;;;;;;10.32;8.43;;;22.90;99.90;;;;;;5074591;28;20169;-77
2023/07/09 01:31:23;;;;;;;13.85;9.73;;;22.90;99.90;;;;;;5075467;28;20349;-78
2023/07/09 01:33:48;;;;;;;15.07;9.45;;;22.90;99.90;;;;;;5075400;28;20161;-77
2023/07/09 01:36:17;;;;;;;12.57;10.18;;;22.90;99.90;;;;;;5073940;28;20500;-77
2023/07/09 01:38:43;;;;;;;13.07;9.90;;;22.90;99.90;;;;;;5053276;28;20251;-77
2023/07/09 01:41:13;;;;;;;18.35;15.00;;;23.00;99.90;;;;;;5054787;28;20177;-78
2023/07/09 01:43:43;;;;;;;24.77;19.85;;;23.00;99.90;;;;;;5054844;28;20199;-78
2023/07/09 01:46:12;;;;;;;28.52;22.90;;;23.10;99.90;;;;;;5055033;28;20211;-78
2023/07/09 01:48:40;;;;;;;14.23;11.65;;;23.20;99.90;;;;;;5053660;28;20180;-77
2023/07/09 01:51:09;;;;;;;13.80;10.70;;;23.30;99.90;;;;;;5055075;28;20472;-77
2023/07/09 01:53:37;;;;;;;13.95;10.15;;;23.30;99.90;;;;;;5054879;28;20417;-77
2023/07/09 01:56:03;;;;;;;18.27;15.70;;;23.30;99.90;;;;;;5055174;28;20177;-77
2023/07/09 01:58:30;;;;;;;13.73;11.02;;;23.30;99.90;;;;;;5054476;28;20656;-77
2023/07/09 02:00:56;;;;;;;15.90;12.00;;;23.40;99.90;;;;;;5054881;28;20263;-77
2023/07/09 02:03:24;;;;;;;11.30;9.65;;;23.60;99.90;;;;;;5054792;28;20315;-77
2023/07/09 02:05:53;;;;;;;11.48;8.93;;;23.60;99.90;;;;;;5053445;28;20608;-78
2023/07/09 02:08:18;;;;;;;9.65;8.10;;;23.60;99.70;;;;;;5054845;28;20172;-78
2023/07/09 02:10:45;;;;;;;9.25;7.57;;;23.70;96.60;;;;;;5054877;28;20181;-78
2023/07/09 02:13:11;;;;;;;10.00;7.28;;;23.70;99.90;;;;;;5054599;28;20177;-77
2023/07/09 02:15:36;;;;;;;8.63;7.72;;;23.70;99.90;;;;;;5054617;28;20193;-77
2023/07/09 02:18:02;;;;;;;11.43;7.35;;;23.60;99.90;;;;;;5054409;28;20231;-77
2023/07/09 02:20:28;;;;;;;8.50;7.70;;;23.30;99.90;;;;;;5053275;28;20706;-77
2023/07/09 02:22:53;;;;;;;10.82;8.68;;;23.30;99.90;;;;;;5054232;28;20205;-77
2023/07/09 02:25:19;;;;;;;11.15;8.43;;;23.10;99.90;;;;;;5054356;28;20219;-78
2023/07/09 02:27:45;;;;;;;10.07;8.38;;;23.10;99.90;;;;;;5052980;28;20204;-78
2023/07/09 02:30:11;;;;;;;8.63;7.82;;;23.00;99.90;;;;;;5054139;28;20180;-79
2023/07/09 02:32:37;;;;;;;13.02;8.10;;;23.00;99.90;;;;;;5054237;28;20188;-78
2023/07/09 02:35:04;;;;;;;10.13;6.07;;;23.20;99.90;;;;;;5053038;28;20166;-79
2023/07/09 02:37:30;;;;;;;9.13;7.35;;;23.20;99.60;;;;;;5054320;28;20696;-79
2023/07/09 02:39:55;;;;;;;7.93;7.20;;;23.30;99.90;;;;;;5073350;28;20262;-79
2023/07/09 02:42:22;;;;;;;9.30;6.50;;;23.40;97.10;;;;;;5056124;28;20212;-78
2023/07/09 02:44:48;;;;;;;8.27;5.07;;;23.50;88.30;;;;;;5074222;28;20632;-77
2023/07/09 02:47:14;;;;;;;6.93;6.15;;;23.50;69.20;;;;;;5073555;28;20310;-78
2023/07/09 02:49:40;;;;;;;7.40;6.25;;;23.50;69.00;;;;;;5074030;28;20623;-77
2023/07/09 02:52:06;;;;;;;9.57;6.40;;;23.60;75.70;;;;;;5074133;28;20539;-77
2023/07/09 02:54:32;;;;;;;13.65;6.78;;;23.50;79.30;;;;;;5073632;28;20176;-77
2023/07/09 02:56:57;;;;;;;10.18;6.30;;;23.50;86.20;;;;;;5073544;28;20160;-78
2023/07/09 02:59:25;;;;;;;8.40;5.82;;;23.50;85.40;;;;;;5074010;28;20176;-79
2023/07/09 03:01:51;;;;;;;6.80;6.00;;;23.50;70.80;;;;;;5073783;28;20212;-78
2023/07/09 03:04:20;;;;;;;8.40;6.18;;;23.50;70.70;;;;;;5074039;28;20211;-78
2023/07/09 03:06:45;;;;;;;5.93;5.32;;;23.50;70.10;;;;;;5055660;28;20230;-78
2023/07/09 03:09:11;;;;;;;6.57;5.55;;;23.60;63.70;;;;;;5073334;28;20169;-79
2023/07/09 03:11:37;;;;;;;6.57;5.53;;;23.60;54.00;;;;;;5073622;28;20203;-79
2023/07/09 03:14:03;;;;;;;5.70;5.20;;;23.60;50.80;;;;;;5073546;28;20165;-78
2023/07/09 03:16:30;;;;;;;7.05;5.05;;;23.70;49.20;;;;;;5073239;28;20525;-77
2023/07/09 03:18:56;;;;;;;9.15;4.85;;;23.70;39.70;;;;;;5073224;28;20211;-78
2023/07/09 03:21:24;;;;;;;8.55;5.18;;;23.80;33.40;;;;;;5073058;28;20674;-78
2023/07/09 03:23:50;;;;;;;6.28;5.50;;;23.90;30.40;;;;;;5072727;28;20648;-78
2023/07/09 03:26:15;;;;;;;9.75;5.28;;;24.00;27.30;;;;;;5073679;28;20183;-78
2023/07/09 03:28:41;;;;;;;7.25;5.18;;;23.90;29.90;;;;;;5073104;28;20168;-78
2023/07/09 03:31:07;;;;;;;7.15;5.47;;;23.90;29.90;;;;;;5055371;28;20248;-78
2023/07/09 03:33:32;;;;;;;6.70;5.13;;;23.90;32.10;;;;;;5055088;28;20173;-78
2023/07/09 03:35:58;;;;;;;5.78;5.28;;;23.90;32.40;;;;;;5073397;28;20188;-78
2023/07/09 03:38:24;;;;;;;6.43;5.13;;;23.90;35.00;;;;;;5072641;28;20227;-78
2023/07/09 03:40:51;;;;;;;8.20;5.80;;;23.90;36.60;;;;;;5072964;28;20179;-79
2023/07/09 03:43:17;;;;;;;6.35;5.43;;;23.90;35.80;;;;;;5072881;28;20211;-77
2023/07/09 03:45:45;;;;;;;6.85;5.40;;;23.90;31.50;;;;;;5073253;28;20532;-78
2023/07/09 03:48:10;;;;;;;5.93;5.18;;;24.00;31.70;;;;;;5073356;28;20176;-78
2023/07/09 03:50:36;;;;;;;10.23;6.13;;;24.00;28.80;;;;;;5073234;28;20716;-79
2023/07/09 03:53:01;;;;;;;6.80;5.40;;;24.00;31.50;;;;;;5072691;28;20229;-79
2023/07/09 03:55:27;;;;;;;5.88;5.35;;;23.90;37.90;;;;;;5073149;28;20168;-78
2023/07/09 03:57:56;;;;;;;6.40;5.70;;;23.90;39.00;;;;;;5073842;28;20314;-79
2023/07/09 04:00:22;;;;;;;8.32;6.03;;;23.80;36.30;;;;;;5076631;28;20176;-77
2023/07/09 04:02:48;;;;;;;7.85;6.00;;;23.90;39.90;;;;;;5076600;28;20212;-78
2023/07/09 04:05:14;;;;;;;7.18;5.60;;;23.90;37.90;;;;;;5076338;28;20179;-78
2023/07/09 04:07:40;;;;;;;8.20;5.88;;;23.90;35.90;;;;;;5076269;28;20175;-78
2023/07/09 04:10:06;;;;;;;7.22;6.10;;;23.80;38.00;;;;;;5076744;28;20186;-78
2023/07/09 04:12:32;;;;;;;7.25;6.03;;;23.90;38.10;;;;;;5076351;28;20176;-78
2023/07/09 04:14:58;;;;;;;11.57;6.10;;;23.90;36.70;;;;;;5058442;28;20223;-78
2023/07/09 04:17:24;;;;;;;10.25;6.05;;;23.90;35.30;;;;;;5076709;28;20218;-78
2023/07/09 04:19:50;;;;;;;8.55;6.00;;;24.10;35.20;;;;;;5076504;28;20267;-78
2023/07/09 04:22:16;;;;;;;9.05;5.97;;;24.30;33.40;;;;;;5075574;28;20208;-78
2023/07/09 04:24:43;;;;;;;10.30;6.40;;;24.40;28.30;;;;;;5076439;28;20252;-79
2023/07/09 04:27:09;;;;;;;6.50;5.90;;;24.40;25.10;;;;;;5076307;28;20179;-78
2023/07/09 04:29:35;;;;;;;8.82;6.88;;;24.60;24.10;;;;;;5076119;28;20168;-79
2023/07/09 04:32:02;;;;;;;9.05;6.63;;;24.60;21.30;;;;;;5076498;28;20238;-78
2023/07/09 04:34:28;;;;;;;11.50;6.28;;;24.70;19.50;;;;;;5076118;28;20627;-78
2023/07/09 04:36:54;;;;;;;7.68;5.93;;;25.20;12.20;;;;;;5075656;28;20298;-79
2023/07/09 04:39:19;;;;;;;9.73;6.00;;;25.50;1.00;;;;;;5075757;28;20567;-78
2023/07/09 04:41:45;;;;;;;8.65;6.18;;;26.00;1.00;;;;;;5075831;28;20279;-77
2023/07/09 04:44:10;;;;;;;10.43;6.75;;;26.20;1.00;;;;;;5075795;28;20263;-78
2023/07/09 04:46:37;;;;;;;8.07;6.13;;;26.30;1.00;;;;;;5075887;28;20177;-79
2023/07/09 04:49:03;;;;;;;7.75;6.55;;;26.50;1.00;;;;;;5075577;28;20587;-79
2023/07/09 04:51:29;;;;;;;7.72;6.15;;;26.50;1.00;;;;;;5075520;28;20252;-78
2023/07/09 04:53:54;;;;;;;13.18;6.68;;;26.40;1.00;;;;;;5075816;28;20638;-78
2023/07/09 04:56:20;;;;;;;9.02;6.45;;;26.40;1.00;;;;;;5075782;28;20268;-78
2023/07/09 04:58:46;;;;;;;7.95;5.93;;;26.90;1.00;;;;;;5057430;28;20168;-78
2023/07/09 05:01:11;;;;;;;13.48;6.55;;;27.20;1.00;;;;;;5075625;28;20214;-78
2023/07/09 05:03:38;;;;;;;8.25;6.40;;;27.20;1.00;;;;;;5075873;28;20197;-77
2023/07/09 05:06:05;;;;;;;10.73;6.93;;;27.80;1.00;;;;;;5074983;28;20160;-77
2023/07/09 05:08:30;;;;;;;8.48;6.75;;;28.40;1.00;;;;;;5075459;28;20169;-77
2023/07/09 05:10:57;;;;;;;10.75;6.50;;;29.00;1.00;;;;;;5075316;28;20169;-77
2023/07/09 05:13:24;;;;;;;8.07;6.22;;;29.50;1.00;;;;;;5075407;28;20165;-77
2023/07/09 05:15:50;;;;;;;9.30;5.80;;;30.20;1.00;;;;;;5075467;28;20199;-76
2023/07/09 05:18:17;;;;;;;8.30;5.88;;;31.00;1.00;;;;;;5075178;28;20176;-76
2023/07/09 05:20:43;;;;;;;8.88;6.00;;;31.80;99.90;;;;;;5074876;28;20522;-76
2023/07/09 05:23:09;;;;;;;7.03;6.32;;;32.40;99.90;;;;;;5075109;28;20213;-76
2023/07/09 05:25:35;;;;;;;8.02;6.07;;;32.70;1.00;;;;;;5074758;28;20169;-76
2023/07/09 05:28:00;;;;;;;8.15;6.50;;;33.20;1.00;;;;;;5074981;28;20184;-76
2023/07/09 05:30:26;;;;;;;7.43;5.93;;;33.60;1.00;;;;;;5074944;28;20666;-75
2023/07/09 05:32:55;;;;;;;10.27;6.25;;;34.40;99.90;;;;;;5075013;28;20187;-76
2023/07/09 05:35:22;;;;;;;9.07;6.40;;;34.20;1.00;;;;;;5074871;28;20168;-76
2023/07/09 05:37:47;;;;;;;7.28;5.97;;;33.80;1.00;;;;;;5074714;28;20169;-76
2023/07/09 05:40:13;;;;;;;9.25;6.10;;;33.90;1.00;;;;;;5074964;28;20580;-75
2023/07/09 05:42:38;;;;;;;10.68;6.38;;;33.60;1.00;;;;;;5074572;28;20659;-75
2023/07/09 05:45:04;;;;;;;8.43;6.53;;;34.00;1.00;;;;;;5074389;28;20556;-75
2023/07/09 05:47:30;;;;;;;6.22;5.63;;;34.20;99.90;;;;;;5074728;28;20247;-76
2023/07/09 05:49:56;;;;;;;7.57;5.70;;;34.80;99.90;;;;;;5074162;28;20573;-76
2023/07/09 05:52:23;;;;;;;9.32;5.80;;;35.30;1.00;;;;;;5074624;28;20251;-75
2023/07/09 05:54:50;;;;;;;6.57;5.97;;;35.70;99.90;;;;;;5074335;28;20169;-77
2023/07/09 05:57:15;;;;;;;11.23;5.97;;;35.50;99.90;;;;;;5074279;28;20168;-76
2023/07/09 05:59:41;;;;;;;6.40;5.80;;;35.70;99.90;;;;;;5074320;28;20177;-77
2023/07/09 06:02:11;;;;;;;10.35;5.90;;;35.70;99.90;;;;;;5074200;28;20245;-77
2023/07/09 06:04:37;;;;;;;11.73;5.78;;;35.70;99.90;;;;;;5074521;28;20200;-77
2023/07/09 06:07:03;;;;;;;8.55;5.70;;;35.30;99.90;;;;;;5074105;28;20173;-78
2023/07/09 06:09:29;;;;;;;6.57;5.63;;;34.90;1.00;;;;;;5074240;28;20532;-77
2023/07/09 06:11:55;;;;;;;10.27;5.90;;;35.10;99.90;;;;;;5074434;28;20181;-78
2023/07/09 06:14:20;;;;;;;9.40;6.35;;;35.70;99.90;;;;;;5074239;28;20547;-78
2023/07/09 06:16:46;;;;;;;6.50;5.43;;;36.30;39.90;;;;;;5073962;28;20169;-77
2023/07/09 06:19:12;;;;;;;5.82;5.30;;;36.30;1.00;;;;;;5074239;28;20173;-77
2023/07/09 06:21:38;;;;;;;6.78;5.70;;;36.30;1.00;;;;;;5055728;28;20662;-79
2023/07/09 06:24:05;;;;;;;17.00;7.00;;;37.30;1.00;;;;;;5074490;28;20199;-79
2023/07/09 06:26:31;;;;;;;6.63;5.40;;;37.70;1.00;;;;;;5074379;28;20230;-78
2023/07/09 06:28:56;;;;;;;7.22;5.90;;;37.40;1.00;;;;;;5056790;28;20628;-79
2023/07/09 06:31:24;;;;;;;11.82;5.75;;;36.70;1.00;;;;;;5074928;28;20187;-80
2023/07/09 06:33:50;;;;;;;8.52;6.10;;;36.50;1.00;;;;;;5074621;28;20251;-79
2023/07/09 06:36:17;;;;;;;8.10;5.93;;;36.60;1.00;;;;;;5074574;28;20241;-81
2023/07/09 06:38:44;;;;;;;7.03;6.00;;;36.20;1.00;;;;;;5075908;28;20277;-82
2023/07/09 06:41:10;;;;;;;8.25;6.40;;;36.50;1.00;;;;;;5075388;28;20191;-80
2023/07/09 06:43:38;;;;;;;8.40;6.57;;;37.40;1.00;;;;;;5077116;28;20179;-81
2023/07/09 06:46:05;;;;;;;7.63;6.70;;;37.70;1.00;;;;;;5059360;28;20538;-81
2023/07/09 06:48:31;;;;;;;8.23;6.15;;;38.10;1.00;;;;;;5076575;28;20176;-82
2023/07/09 06:50:58;;;;;;;8.32;6.80;;;38.90;99.90;;;;;;5076202;28;20179;-81
2023/07/09 06:53:24;;;;;;;7.72;6.90;;;39.30;99.90;;;;;;5057600;28;20172;-82
2023/07/09 06:55:50;;;;;;;11.15;7.70;;;38.50;99.90;;;;;;5056384;28;20579;-81
2023/07/09 06:58:17;;;;;;;9.98;7.78;;;38.90;99.90;;;;;;5074704;28;20172;-82
2023/07/09 07:00:42;;;;;;;8.45;7.28;;;39.40;99.90;;;;;;5074975;28;20257;-83
2023/07/09 07:03:09;;;;;;;11.45;8.07;;;39.80;99.90;;;;;;5073772;28;20662;-83
2023/07/09 07:05:34;;;;;;;9.13;8.32;;;40.00;99.90;;;;;;5073658;28;20168;-83
2023/07/09 07:08:02;;;;;;;12.23;9.20;;;40.00;99.90;;;;;;5073950;28;20519;-83
2023/07/09 07:10:28;;;;;;;10.73;9.63;;;40.40;99.90;;;;;;5056395;28;20172;-83
2023/07/09 07:12:54;;;;;;;10.90;9.45;;;39.80;99.90;;;;;;5073902;28;20643;-83
2023/07/09 07:15:20;;;;;;;11.40;10.20;;;39.60;99.90;;;;;;5073071;28;20203;-83
2023/07/09 07:17:46;;;;;;;11.85;10.70;;;39.50;99.90;;;;;;5073454;28;20643;-83
2023/07/09 07:20:13;;;;;;;13.07;10.75;;;39.10;99.90;;;;;;5073118;28;20493;-83
2023/07/09 07:22:39;;;;;;;18.48;16.67;;;39.50;99.90;;;;;;5073526;28;20214;-83
2023/07/09 07:25:06;;;;;;;17.55;15.65;;;39.70;99.90;;;;;;5073069;28;20639;-83
2023/07/09 07:27:32;;;;;;;21.10;18.92;;;40.20;99.90;;;;;;5073264;28;20237;-83
2023/07/09 07:29:57;;;;;;;20.98;18.70;;;40.80;99.90;;;;;;5073430;28;20164;-83
2023/07/09 07:32:23;;;;;;;21.58;19.17;;;41.00;99.90;;;;;;5073348;28;20180;-82
2023/07/09 07:34:49;;;;;;;22.02;19.67;;;41.40;99.90;;;;;;5077339;28;20187;-83
2023/07/09 07:37:19;;;;;;;21.98;19.17;;;41.20;99.90;;;;;;5077923;28;20182;-83
2023/07/09 07:39:44;;;;;;;21.48;19.27;;;41.10;99.90;;;;;;5077742;28;20733;-83
2023/07/09 07:42:10;;;;;;;21.45;19.25;;;40.60;99.90;;;;;;5077370;28;20199;-82
2023/07/09 07:44:36;;;;;;;23.40;18.27;;;41.10;99.90;;;;;;5078112;28;20631;-82
2023/07/09 07:47:01;;;;;;;21.83;19.70;;;41.40;99.90;;;;;;5077259;28;20701;-82
2023/07/09 07:49:27;;;;;;;24.13;20.27;;;41.70;99.90;;;;;;5077417;28;20566;-81
2023/07/09 07:51:52;;;;;;;22.17;19.77;;;41.40;99.90;;;;;;5076929;28;20279;-82
2023/07/09 07:54:18;;;;;;;24.02;19.55;;;41.30;99.90;;;;;;5077465;28;20183;-82
2023/07/09 07:56:44;;;;;;;21.95;19.70;;;41.30;99.90;;;;;;5077235;28;20219;-81
2023/07/09 07:59:09;;;;;;;22.85;20.30;;;41.40;99.90;;;;;;5076868;28;20636;-84
2023/07/09 08:01:35;;;;;;;24.33;21.85;;;40.90;99.90;;;;;;5076392;28;20682;-81
2023/07/09 08:04:02;;;;;;;24.85;22.35;;;41.30;99.90;;;;;;5076879;28;20599;-82
2023/07/09 08:06:28;;;;;;;25.30;22.73;;;41.90;99.90;;;;;;5076771;28;20171;-82
2023/07/09 08:08:54;;;;;;;24.10;21.73;;;41.50;99.90;;;;;;5076808;28;20180;-83
2023/07/09 08:11:20;;;;;;;23.52;21.13;;;41.60;99.30;;;;;;5076505;28;20636;-82
2023/07/09 08:13:46;;;;;;;22.23;19.65;;;41.80;90.50;;;;;;5076591;28;20244;-82
2023/07/09 08:16:11;;;;;;;24.05;21.52;;;41.90;69.70;;;;;;5076365;28;20192;-83
2023/07/09 08:18:37;;;;;;;22.15;19.35;;;41.80;50.70;;;;;;5076320;28;20168;-82
2023/07/09 08:21:03;;;;;;;23.45;21.25;;;41.70;47.50;;;;;;5076270;28;20164;-82
2023/07/09 08:23:29;;;;;;;21.45;19.30;;;41.80;37.70;;;;;;5076893;28;20693;-84
2023/07/09 08:25:57;;;;;;;21.67;19.35;;;42.00;36.00;;;;;;5076179;28;20247;-81
2023/07/09 08:28:23;;;;;;;23.60;21.33;;;42.20;33.70;;;;;;5075584;28;20176;-81
2023/07/09 08:30:51;;;;;;;23.67;21.30;;;42.20;29.70;;;;;;5075991;28;20172;-81
2023/07/09 08:33:16;;;;;;;22.35;20.17;;;41.90;25.30;;;;;;5076401;28;20194;-82
2023/07/09 08:35:43;;;;;;;21.65;19.55;;;41.90;26.50;;;;;;5075564;28;20679;-81
2023/07/09 08:38:09;;;;;;;21.55;19.42;;;42.30;44.40;;;;;;5075888;28;20223;-82
2023/07/09 08:40:41;;;;;;;24.05;20.52;;;42.60;23.80;;;;;;5075866;28;20171;-82
2023/07/09 08:43:45;;;;;;;22.27;19.88;;;42.60;22.40;;;;;;5074967;28;20223;-81
2023/07/09 08:46:39;;;;;;;23.33;20.95;;;42.90;20.70;;;;;;5072624;28;20183;-82
2023/07/09 08:49:34;;;;;;;23.80;21.45;;;43.20;16.30;;;;;;5074998;28;20184;-83
2023/07/09 08:52:00;;;;;;;24.92;22.10;;;43.00;13.70;;;;;;5074971;28;20172;-83
2023/07/09 08:54:35;;;;;;;23.50;21.30;;;43.10;10.20;;;;;;5075760;28;20176;-81
2023/07/09 08:57:23;;;;;;;23.55;21.05;;;43.10;8.70;;;;;;5075397;28;20635;-83
2023/07/09 08:59:53;;;;;;;22.70;20.48;;;42.80;7.00;;;;;;5075719;28;20198;-83
2023/07/09 09:02:50;;;;;;;26.35;23.85;;;42.10;9.40;;;;;;5075781;28;20562;-82
2023/07/09 09:05:19;;;;;;;22.77;20.48;;;41.40;14.40;;;;;;5075901;28;20160;-81
2023/07/09 09:08:01;;;;;;;23.00;20.92;;;41.50;24.30;;;;;;5075556;28;20179;-83
2023/07/09 09:10:42;;;;;;;28.00;24.92;;;40.60;31.80;;;;;;5075210;28;20206;-82
2023/07/09 09:13:14;;;;;;;24.70;22.20;;;38.70;65.50;;;;;;5075002;28;20321;-83
2023/07/09 09:15:43;;;;;;;22.55;20.30;;;40.00;99.90;;;;;;5076867;28;20195;-82
2023/07/09 09:18:18;;;;;;;26.52;23.67;;;40.70;99.90;;;;;;5075495;28;20245;-81
2023/07/09 09:21:03;;;;;;;24.25;21.85;;;41.20;99.90;;;;;;5074890;28;20224;-82
2023/07/09 09:23:38;;;;;;;26.88;24.15;;;39.60;99.90;;;;;;5074904;28;20211;-82
2023/07/09 09:26:13;;;;;;;23.73;21.42;;;39.40;99.90;;;;;;5075050;28;20631;-82
2023/07/09 09:28:38;;;;;;;25.95;23.50;;;40.40;99.90;;;;;;5076166;28;20199;-83
2023/07/09 09:31:07;;;;;;;22.92;20.67;;;40.50;99.90;;;;;;5075198;28;20253;-82
2023/07/09 09:33:59;;;;;;;20.42;18.42;;;41.20;99.90;;;;;;5075943;28;20211;-82
2023/07/09 09:36:26;;;;;;;22.58;19.80;;;41.50;99.90;;;;;;5071598;28;20280;-83
2023/07/09 09:38:52;;;;;;;20.02;18.08;;;41.70;99.90;;;;;;5075151;28;20224;-82
2023/07/09 09:41:22;;;;;;;21.20;18.98;;;42.00;91.80;;;;;;5076130;28;20171;-82
2023/07/09 09:43:51;;;;;;;19.40;17.40;;;41.70;82.10;;;;;;5074866;28;20173;-83
2023/07/09 09:46:21;;;;;;;21.48;19.00;;;41.60;91.30;;;;;;5076141;28;20168;-82
2023/07/09 09:48:49;;;;;;;20.08;17.67;;;41.50;91.00;;;;;;5075093;28;20167;-84
2023/07/09 09:51:17;;;;;;;19.58;17.83;;;40.70;98.00;;;;;;5074342;28;20172;-82
2023/07/09 09:53:49;;;;;;;19.27;17.38;;;41.10;99.90;;;;;;5075394;28;20171;-82
2023/07/09 09:56:19;;;;;;;18.83;16.92;;;41.50;99.90;;;;;;5073982;28;20164;-82
2023/07/09 09:58:45;;;;;;;18.63;16.75;;;41.60;99.20;;;;;;5074544;28;20164;-82
2023/07/09 10:01:18;;;;;;;20.38;18.35;;;41.10;97.20;;;;;;5074067;28;20171;-81
2023/07/09 10:03:46;;;;;;;19.38;17.45;;;40.00;99.90;;;;;;5074730;28;20180;-81
2023/07/09 10:06:19;;;;;;;18.02;16.42;;;39.70;99.90;;;;;;5074206;28;20183;-81
2023/07/09 10:09:01;;;;;;;16.38;14.90;;;39.80;99.90;;;;;;5073758;28;20168;-80
2023/07/09 10:11:46;;;;;;;17.63;15.82;;;39.90;99.90;;;;;;5073650;28;20168;-80
2023/07/09 10:14:25;;;;;;;17.30;15.43;;;39.70;99.90;;;;;;5073973;28;20199;-80
2023/07/09 10:16:58;;;;;;;16.73;15.02;;;38.90;99.90;;;;;;5074143;28;20229;-80
2023/07/09 10:20:00;;;;;;;15.05;13.55;;;38.60;99.90;;;;;;5073847;28;20255;-81
2023/07/09 10:22:40;;;;;;;15.07;13.45;;;38.20;99.90;;;;;;5062708;28;20223;-81
2023/07/09 10:25:30;;;;;;;15.85;13.07;;;37.80;99.90;;;;;;5073438;28;20584;-82
2023/07/09 10:27:58;;;;;;;15.85;13.88;;;37.90;1.00;;;;;;5073948;28;20168;-83
2023/07/09 10:30:38;;;;;;;14.13;12.77;;;37.40;1.00;;;;;;5055330;28;20168;-82
2023/07/09 10:33:10;;;;;;;12.90;11.57;;;37.40;1.00;;;;;;5073752;28;20180;-82
2023/07/09 10:35:57;;;;;;;14.80;11.98;;;36.60;1.00;;;;;;5073704;28;20202;-82
2023/07/09 10:38:34;;;;;;;12.85;10.27;;;36.20;16.50;;;;;;5074048;28;20230;-81
2023/07/09 10:41:04;;;;;;;12.98;10.07;;;35.50;99.90;;;;;;5073876;28;20214;-82
2023/07/09 10:43:50;;;;;;;13.93;12.52;;;34.80;99.90;;;;;;5073588;28;20266;-82
2023/07/09 10:46:26;;;;;;;14.82;10.63;;;34.20;1.00;;;;;;5072830;28;20678;-80
2023/07/09 10:48:54;;;;;;;10.88;9.77;;;33.70;37.40;;;;;;5073411;28;20179;-81
2023/07/09 10:51:27;;;;;;;15.48;10.57;;;33.40;1.00;;;;;;5055276;28;20258;-80
2023/07/09 10:54:03;;;;;;;11.15;9.38;;;33.00;1.00;;;;;;5073026;28;20218;-80
2023/07/09 10:56:35;;;;;;;10.30;9.30;;;32.60;99.90;;;;;;5073311;28;20171;-79
2023/07/09 10:59:19;;;;;;;10.30;9.05;;;32.40;1.00;;;;;;5072952;28;20488;-80
2023/07/09 11:01:52;;;;;;;10.73;8.77;;;32.20;1.00;;;;;;5072721;28;20706;-80
2023/07/09 11:04:58;;;;;;;9.27;8.20;;;32.00;1.00;;;;;;5055259;28;20177;-80
2023/07/09 11:07:37;;;;;;;6.97;6.25;;;31.80;1.00;;;;;;4990802;28;20179;-80
2023/07/09 11:10:09;;;;;;;8.23;6.65;;;32.20;99.90;;;;;;4991530;28;20174;-80
2023/07/09 11:12:49;;;;;;;5.97;5.38;;;32.00;50.60;;;;;;4991652;28;20191;-80
2023/07/09 11:15:18;;;;;;;6.45;5.57;;;31.70;1.00;;;;;;4991627;28;20195;-80
2023/07/09 11:17:47;;;;;;;8.68;5.82;;;31.80;99.90;;;;;;4991125;28;20195;-79
2023/07/09 11:20:25;;;;;;;6.38;5.28;;;31.90;1.00;;;;;;4975055;28;20272;-79
2023/07/09 11:22:54;;;;;;;6.20;5.60;;;31.70;8.60;;;;;;4990949;28;20748;-80
2023/07/09 11:25:42;;;;;;;6.03;5.07;;;31.10;1.00;;;;;;4991492;28;20194;-79
2023/07/09 11:28:09;;;;;;;5.47;4.97;;;31.00;99.90;;;;;;4991208;28;20780;-79
2023/07/09 11:30:47;;;;;;;6.05;5.45;;;30.60;99.90;;;;;;4991482;28;20194;-79
2023/07/09 11:33:26;;;;;;;6.25;5.40;;;30.10;1.00;;;;;;4990958;28;20203;-79
2023/07/09 11:36:06;;;;;;;5.65;5.00;;;30.00;1.00;;;;;;4991825;28;20223;-79
2023/07/09 11:38:41;;;;;;;9.43;5.57;;;29.80;1.00;;;;;;5046052;28;20691;-79
2023/07/09 11:41:27;;;;;;;6.65;5.63;;;29.60;1.00;;;;;;5072216;28;20203;-79
2023/07/09 11:43:52;;;;;;;5.53;4.80;;;29.50;1.00;;;;;;5072829;28;20176;-79
2023/07/09 11:46:23;;;;;;;8.07;5.55;;;29.40;1.00;;;;;;5072811;28;20161;-79
2023/07/09 11:48:50;;;;;;;5.63;5.10;;;29.00;1.00;;;;;;5072792;28;20190;-79
2023/07/09 11:51:26;;;;;;;10.82;5.50;;;28.90;1.00;;;;;;5071962;28;20171;-79
2023/07/09 11:53:53;;;;;;;5.88;4.93;;;28.70;1.00;;;;;;5072709;28;20723;-79
2023/07/09 11:56:21;;;;;;;6.05;5.55;;;28.60;1.00;;;;;;5072555;28;20183;-79
2023/07/09 11:58:52;;;;;;;8.68;5.63;;;28.60;1.00;;;;;;5072131;28;20692;-79
2023/07/09 12:01:21;;;;;;;8.77;4.93;;;28.40;1.00;;;;;;5072136;28;20180;-78
2023/07/09 12:03:48;;;;;;;6.55;5.43;;;28.20;1.00;;;;;;5072352;28;20193;-80
2023/07/09 12:06:25;;;;;;;6.00;5.20;;;28.00;1.00;;;;;;5072172;28;20172;-79
2023/07/09 12:08:52;;;;;;;6.07;4.80;;;27.80;1.00;;;;;;5072680;28;20223;-79
2023/07/09 12:11:33;;;;;;;6.80;4.90;;;27.70;1.00;;;;;;5072411;28;20192;-79
2023/07/09 12:14:10;;;;;;;8.85;5.30;;;27.80;1.00;;;;;;5072090;28;20643;-78
2023/07/09 12:16:39;;;;;;;10.13;5.65;;;27.60;1.00;;;;;;5072204;28;20179;-79
2023/07/09 12:19:05;;;;;;;6.38;5.25;;;27.50;1.00;;;;;;5072804;28;20251;-79
2023/07/09 12:21:34;;;;;;;8.10;6.00;;;27.10;1.00;;;;;;5076045;28;20726;-79
2023/07/09 12:24:01;;;;;;;6.60;5.57;;;27.00;1.00;;;;;;5075905;28;20177;-78
2023/07/09 12:26:31;;;;;;;7.78;5.60;;;26.90;1.00;;;;;;5057881;28;20607;-78
2023/07/09 12:28:58;;;;;;;13.55;7.13;;;26.90;6.20;;;;;;5075879;28;20340;-77
2023/07/09 12:31:30;;;;;;;10.90;6.80;;;26.60;2.80;;;;;;5075746;28;20675;-79
2023/07/09 12:33:58;;;;;;;9.00;7.05;;;26.20;16.50;;;;;;5076327;28;20685;-78
2023/07/09 12:36:26;;;;;;;10.13;6.75;;;25.80;36.50;;;;;;5075181;28;20168;-78
2023/07/09 12:38:56;;;;;;;10.75;8.35;;;25.40;58.00;;;;;;5075155;28;20259;-79
2023/07/09 12:41:38;;;;;;;9.70;7.15;;;25.10;99.90;;;;;;5075884;28;20172;-78
2023/07/09 12:44:05;;;;;;;11.95;8.07;;;24.70;99.90;;;;;;5075647;28;20270;-79
2023/07/09 12:46:31;;;;;;;12.07;8.82;;;24.60;99.90;;;;;;5075832;28;20176;-77
2023/07/09 12:48:56;;;;;;;14.00;8.07;;;24.30;99.90;;;;;;5075230;28;20183;-78
2023/07/09 12:51:25;;;;;;;12.43;8.98;;;24.00;99.90;;;;;;5075131;28;20172;-77